Time;durP1;ratioP1;P1;durP2;ratioP2;P2;SDS_P1;SDS_P2;PMS_P1;PMS_P2;Temp;Humidity;BMP_temperature;BMP_pressure;BME280_temperature;BME280_humidity;BME280_pressure;Samples;Min_cycle;Max_cycle;Signal;HPM_P1;HPM_P2
2022/07/01 00:11:09;;;;;;;;;;;;;;;;;;;;;
2022/07/01 00:17:08;;;;;;;;;;;;;;;;;;;;;
2022/07/01 00:22:42;;;;;;;;;;;;;;;;;;;;;
2022/07/01 00:31:38;;;;;;;;;;;;;;;;;;4685725;30;20043;-95
2022/07/01 00:34:50;;;;;;;;;;;;;;;;;;;;;
2022/07/01 00:43:26;;;;;;;;;;;;;;;;;;;;;
2022/07/01 00:49:22;;;;;;;;;;;;;;;;;;;;;
2022/07/01 01:32:50;;;;;;;;;;;;;;;;;;;;;
2022/07/01 01:51:55;;;;;;;;;;;;;;;;;;5088717;27;19920;-88
2022/07/01 01:54:22;;;;;;;;;;;;;;;;;;5091390;27;20301;-88
2022/07/01 01:56:49;;;;;;;;;;;;;;;;;;5088636;27;19927;-89
2022/07/01 01:59:16;;;;;;;;;;;;;;;;;;5082576;27;20768;-89
2022/07/01 02:01:43;;;;;;;;;;;;;;;;;;5069846;27;19956;-89
2022/07/01 02:04:10;;;;;;;;;;;;;;;;;;5108152;27;19927;-89
2022/07/01 02:06:40;;;;;;;;;;;;;;;;;;5079067;27;20491;-89
2022/07/01 02:09:08;;;;;;;;;;;;;;;;;;5115012;27;20856;-89
2022/07/01 02:11:36;;;;;;;;;;;;;;;;;;5088343;27;19929;-89
2022/07/01 02:14:03;;;;;;;;;;;;;;;;;;5089844;27;19931;-88
2022/07/01 02:16:30;;;;;;;;;;;;;;;;;;5093669;27;19919;-88
2022/07/01 02:18:57;;;;;;;;;;;;;;;;;;5090746;27;19928;-88
2022/07/01 02:21:24;;;;;;;;;;;;;;;;;;5070871;27;19927;-88
2022/07/01 02:23:54;;;;;;;;;;;;;;;;;;5090833;27;20010;-88
2022/07/01 02:26:22;;;;;;;;;;;;;;;;;;5095970;27;19931;-89
2022/07/01 02:28:49;;;;;;;;;;;;;;;;;;5089010;27;19923;-88
2022/07/01 02:31:16;;;;;;;;;;;;;;;;;;5093629;27;19924;-87
2022/07/01 02:33:42;;;;;;;;;;;;;;;;;;5074541;27;19924;-88
2022/07/01 02:36:09;;;;;;;;;;;;;;;;;;5096406;27;20400;-88
2022/07/01 02:38:37;;;;;;;;;;;;;;;;;;5065173;28;20951;-88
2022/07/01 02:41:04;;;;;;;;;;;;;;;;;;5108248;27;19982;-88
2022/07/01 02:43:31;;;;;;;;;;;;;;;;;;5096398;27;21575;-88
2022/07/01 02:45:57;;;;;;;;;;;;;;;;;;5074094;28;21299;-89
2022/07/01 02:48:24;;;;;;;;;;;;;;;;;;5078668;28;20769;-88
2022/07/01 02:50:50;;;;;;;;;;;;;;;;;;5084843;27;19927;-88
2022/07/01 02:53:17;;;;;;;;;;;;;;;;;;5075298;28;19928;-88
2022/07/01 02:55:44;;;;;;;;;;;;;;;;;;5051253;28;20282;-88
2022/07/01 02:58:12;;;;;;;;;;;;;;;;;;5095554;27;19928;-88
2022/07/01 03:00:39;;;;;;;;;;;;;;;;;;5090393;27;19932;-87
2022/07/01 03:03:05;;;;;;;;;;;;;;;;;;5081596;27;19924;-89
2022/07/01 03:05:32;;;;;;;;;;;;;;;;;;5043459;28;19928;-88
2022/07/01 03:07:59;;;;;;;;;;;;;;;;;;5094171;27;19928;-89
2022/07/01 03:10:26;;;;;;;;;;;;;;;;;;5074608;27;19958;-89
2022/07/01 03:12:54;;;;;;;;;;;;;;;;;;5053406;28;19920;-89
2022/07/01 03:15:21;;;;;;;;;;;;;;;;;;5094123;27;19931;-88
2022/07/01 03:17:48;;;;;;;;;;;;;;;;;;5059318;28;19997;-88
2022/07/01 03:20:15;;;;;;;;;;;;;;;;;;5078362;28;19924;-89
2022/07/01 03:22:41;;;;;;;;;;;;;;;;;;5063963;28;19958;-89
2022/07/01 03:25:08;;;;;;;;;;;;;;;;;;5075732;28;20350;-89
2022/07/01 03:27:35;;;;;;;;;;;;;;;;;;5045024;28;19973;-88
2022/07/01 03:30:03;;;;;;;;;;;;;;;;;;5072539;28;19932;-89
2022/07/01 03:32:30;;;;;;;;;;;;;;;;;;5050380;28;19966;-88
2022/07/01 03:34:57;;;;;;;;;;;;;;;;;;5047030;28;19928;-88
2022/07/01 03:37:24;;;;;;;;;;;;;;;;;;5047622;28;19921;-88
2022/07/01 03:39:50;;;;;;;;;;;;;;;;;;5079627;28;21538;-88
2022/07/01 03:42:18;;;;;;;;;;;;;;;;;;5063836;28;19931;-88
2022/07/01 03:44:47;;;;;;;;;;;;;;;;;;5077803;27;19928;-88
2022/07/01 03:47:13;;;;;;;;;;;;;;;;;;5102985;27;20672;-88
2022/07/01 03:49:39;;;;;;;;;;;;;;;;;;5047583;28;19928;-87
2022/07/01 03:52:05;;;;;;;;;;;;;;;;;;5068236;28;19928;-88
2022/07/01 03:54:32;;;;;;;;;;;;;;;;;;5098886;27;19951;-88
2022/07/01 03:56:58;;;;;;;;;;;;;;;;;;5094605;27;19932;-87
2022/07/01 03:59:24;;;;;;;;;;;;;;;;;;5081308;27;19935;-88
2022/07/01 04:02:07;;;;;;;;;;;;;;;;;;5040832;28;19924;-88
2022/07/01 04:05:01;;;;;;;;;;;;;;;;;;4996891;28;19929;-88
2022/07/01 04:07:27;;;;;;;;;;;;;;;;;;5075394;27;20790;-87
2022/07/01 04:09:53;;;;;;;;;;;;;;;;;;5053441;28;19920;-88
2022/07/01 04:12:19;;;;;;;;;;;;;;;;;;5046186;28;19932;-89
2022/07/01 04:14:45;;;;;;;;;;;;;;;;;;5053754;28;19928;-89
2022/07/01 04:17:11;;;;;;;;;;;;;;;;;;5068709;27;21869;-88
2022/07/01 04:19:40;;;;;;;;;;;;;;;;;;5050253;28;19928;-88
2022/07/01 04:24:51;;;;;;;;;;;;;;;;;;5081418;27;19975;-87
2022/07/01 04:27:17;;;;;;;;;;;;;;;;;;5053454;28;21373;-88
2022/07/01 04:29:42;;;;;;;;;;;;;;;;;;5055925;28;20015;-88
2022/07/01 04:32:08;;;;;;;;;;;;;;;;;;5085273;27;20294;-88
2022/07/01 04:34:34;;;;;;;;;;;;;;;;;;5060741;28;19963;-88
2022/07/01 04:37:00;;;;;;;;;;;;;;;;;;5054259;28;19994;-87
2022/07/01 04:39:26;;;;;;;;;;;;;;;;;;5062885;28;19924;-87
2022/07/01 04:41:59;;;;;;;;;;;;;;;;;;5043703;28;20404;-88
2022/07/01 04:44:25;;;;;;;;;;;;;;;;;;5072225;28;19932;-88
2022/07/01 04:46:52;;;;;;;;;;;;;;;;;;5080507;27;19920;-88
2022/07/01 04:49:19;;;;;;;;;;;;;;;;;;5087698;27;19928;-88
2022/07/01 04:51:46;;;;;;;;;;;;;;;;;;5039004;28;19939;-88
2022/07/01 04:54:14;;;;;;;;;;;;;;;;;;5079873;28;19975;-88
2022/07/01 04:56:41;;;;;;;;;;;;;;;;;;5071353;28;19920;-88
2022/07/01 04:59:08;;;;;;;;;;;;;;;;;;5061961;28;19924;-88
2022/07/01 05:01:35;;;;;;;;;;;;;;;;;;5065892;28;19920;-87
2022/07/01 05:04:02;;;;;;;;;;;;;;;;;;5050415;28;19924;-87
2022/07/01 05:06:29;;;;;;;;;;;;;;;;;;5070622;28;19963;-87
2022/07/01 05:08:56;;;;;;;;;;;;;;;;;;5064390;28;19928;-88
2022/07/01 05:11:22;;;;;;;;;;;;;;;;;;5070791;28;19934;-88
2022/07/01 05:13:48;;;;;;;;;;;;;;;;;;5063166;28;20292;-87
2022/07/01 05:16:16;;;;;;;;;;;;;;;;;;5065139;28;19924;-88
2022/07/01 05:24:23;;;;;;;;;;;;;;;;;;5100454;27;19935;-87
2022/07/01 05:26:50;;;;;;;;;;;;;;;;;;5052221;28;19976;-87
2022/07/01 05:29:16;;;;;;;;;;;;;;;;;;5068286;28;19954;-87
2022/07/01 05:31:43;;;;;;;;;;;;;;;;;;5043087;28;20347;-88
2022/07/01 05:34:10;;;;;;;;;;;;;;;;;;5071085;28;19924;-87
2022/07/01 05:36:39;;;;;;;;;;;;;;;;;;5052345;28;19959;-88
2022/07/01 05:39:06;;;;;;;;;;;;;;;;;;5060993;28;19931;-87
2022/07/01 05:41:34;;;;;;;;;;;;;;;;;;5067446;28;19946;-87
2022/07/01 05:44:01;;;;;;;;;;;;;;;;;;5064199;28;19924;-87
2022/07/01 05:46:27;;;;;;;;;;;;;;;;;;5055032;28;19946;-87
2022/07/01 05:48:53;;;;;;;;;;;;;;;;;;5047719;28;20568;-87
2022/07/01 05:51:19;;;;;;;;;;;;;;;;;;5069420;28;19928;-87
2022/07/01 05:53:47;;;;;;;;;;;;;;;;;;5067399;28;19928;-87
2022/07/01 05:56:15;;;;;;;;;;;;;;;;;;5055584;28;19920;-88
2022/07/01 05:58:42;;;;;;;;;;;;;;;;;;5059703;28;19942;-87
2022/07/01 06:01:09;;;;;;;;;;;;;;;;;;5067731;28;20358;-87
2022/07/01 06:03:39;;;;;;;;;;;;;;;;;;5079306;28;19934;-88
2022/07/01 06:06:05;;;;;;;;;;;;;;;;;;5085134;28;19924;-87
2022/07/01 06:08:34;;;;;;;;;;;;;;;;;;5062448;28;20404;-87
2022/07/01 06:11:01;;;;;;;;;;;;;;;;;;5062313;28;19933;-88
2022/07/01 06:13:29;;;;;;;;;;;;;;;;;;5050615;28;19928;-87
2022/07/01 06:15:58;;;;;;;;;;;;;;;;;;5079661;28;20121;-87
2022/07/01 06:18:25;;;;;;;;;;;;;;;;;;5052323;28;20263;-87
2022/07/01 06:20:52;;;;;;;;;;;;;;;;;;5097404;27;19924;-87
2022/07/01 06:23:18;;;;;;;;;;;;;;;;;;5069732;28;19935;-87
2022/07/01 06:25:45;;;;;;;;;;;;;;;;;;5079966;28;19924;-87
2022/07/01 06:28:12;;;;;;;;;;;;;;;;;;5050065;28;19931;-87
2022/07/01 06:30:43;;;;;;;;;;;;;;;;;;5063317;28;19986;-86
2022/07/01 06:33:17;;;;;;;;;;;;;;;;;;5063276;28;20320;-88
2022/07/01 06:35:43;;;;;;;;;;;;;;;;;;5090134;27;19930;-89
2022/07/01 06:38:30;;;;;;;;;;;;;;;;;;5096403;27;20404;-89
2022/07/01 06:43:45;;;;;;;;;;;;;;;;;;5104939;27;19989;-89
2022/07/01 06:46:12;;;;;;;;;;;;;;;;;;5091766;28;19928;-88
2022/07/01 06:48:39;;;;;;;;;;;;;;;;;;5070226;28;20263;-88
2022/07/01 06:51:07;;;;;;;;;;;;;;;;;;5058963;28;19954;-89
2022/07/01 06:53:37;;;;;;;;;;;;;;;;;;5071860;28;19973;-87
2022/07/01 06:56:04;;;;;;;;;;;;;;;;;;5052571;28;19928;-86
2022/07/01 06:58:30;;;;;;;;;;;;;;;;;;5058386;28;19931;-85
2022/07/01 07:00:58;;;;;;;;;;;;;;;;;;5098954;27;19947;-85
2022/07/01 07:03:25;;;;;;;;;;;;;;;;;;5051544;28;19924;-85
2022/07/01 07:05:52;;;;;;;;;;;;;;;;;;5065956;28;20350;-85
2022/07/01 07:08:18;;;;;;;;;;;;;;;;;;5072221;28;19920;-85
2022/07/01 07:10:45;;;;;;;;;;;;;;;;;;5074527;28;19924;-85
2022/07/01 07:13:11;;;;;;;;;;;;;;;;;;5108283;27;20335;-85
2022/07/01 07:15:41;;;;;;;;;;;;;;;;;;5073315;28;19982;-85
2022/07/01 07:18:08;;;;;;;;;;;;;;;;;;5080045;28;20019;-83
2022/07/01 07:20:55;;;;;;;;;;;;;;;;;;5050656;28;19928;-84
2022/07/01 07:23:23;;;;;;;;;;;;;;;;;;5037816;28;20442;-84
2022/07/01 07:25:50;;;;;;;;;;;;;;;;;;5065472;28;19920;-85
2022/07/01 07:28:17;;;;;;;;;;;;;;;;;;5055375;28;19920;-86
2022/07/01 07:30:45;;;;;;;;;;;;;;;;;;5033227;28;20421;-84
2022/07/01 07:33:12;;;;;;;;;;;;;;;;;;5055108;28;19936;-85
2022/07/01 07:35:38;;;;;;;;;;;;;;;;;;5050787;28;19929;-85
2022/07/01 07:38:07;;;;;;;;;;;;;;;;;;5053053;28;20290;-84
2022/07/01 07:40:34;;;;;;;;;;;;;;;;;;5055018;28;20305;-84
2022/07/01 07:43:03;;;;;;;;;;;;;;;;;;5032787;28;19967;-85
2022/07/01 07:45:31;;;;;;;;;;;;;;;;;;5040566;28;19935;-86
2022/07/01 07:47:59;;;;;;;;;;;;;;;;;;5067485;28;20792;-85
2022/07/01 07:50:26;;;;;;;;;;;;;;;;;;5054878;28;19954;-85
2022/07/01 07:52:53;;;;;;;;;;;;;;;;;;5098086;27;20377;-85
2022/07/01 07:55:21;;;;;;;;;;;;;;;;;;5075255;28;20401;-85
2022/07/01 07:57:48;;;;;;;;;;;;;;;;;;5071215;28;19928;-85
2022/07/01 08:00:15;;;;;;;;;;;;;;;;;;5071027;28;19928;-86
2022/07/01 08:02:42;;;;;;;;;;;;;;;;;;5066579;28;20061;-85
2022/07/01 08:05:09;;;;;;;;;;;;;;;;;;5067025;28;19920;-84
2022/07/01 08:07:36;;;;;;;;;;;;;;;;;;5068815;28;20387;-88
2022/07/01 08:10:04;;;;;;;;;;;;;;;;;;5087066;28;19931;-88
2022/07/01 08:12:30;;;;;;;;;;;;;;;;;;5067449;28;19928;-89
2022/07/01 08:14:57;;;;;;;;;;;;;;;;;;5078460;27;19920;-88
2022/07/01 08:17:25;;;;;;;;;;;;;;;;;;5072257;28;19920;-88
2022/07/01 08:19:52;;;;;;;;;;;;;;;;;;5088563;28;19974;-88
2022/07/01 08:22:19;;;;;;;;;;;;;;;;;;5093957;27;19916;-88
2022/07/01 08:24:46;;;;;;;;;;;;;;;;;;5105811;27;19924;-87
2022/07/01 08:27:13;;;;;;;;;;;;;;;;;;5062925;28;19921;-87
2022/07/01 08:29:40;;;;;;;;;;;;;;;;;;5059140;28;20416;-87
2022/07/01 08:32:06;;;;;;;;;;;;;;;;;;5092116;28;20421;-87
2022/07/01 08:34:32;;;;;;;;;;;;;;;;;;5071635;28;19935;-87
2022/07/01 08:36:58;;;;;;;;;;;;;;;;;;5070561;28;19939;-88
2022/07/01 08:39:25;;;;;;;;;;;;;;;;;;5083148;28;19929;-88
2022/07/01 08:41:53;;;;;;;;;;;;;;;;;;5071022;28;19924;-88
2022/07/01 08:44:20;;;;;;;;;;;;;;;;;;5114902;27;19956;-88
2022/07/01 08:46:47;;;;;;;;;;;;;;;;;;5059345;28;20449;-88
2022/07/01 08:49:15;;;;;;;;;;;;;;;;;;5113976;27;20015;-89
2022/07/01 08:51:42;;;;;;;;;;;;;;;;;;5105656;27;19943;-88
2022/07/01 08:54:09;;;;;;;;;;;;;;;;;;5078959;28;20389;-88
2022/07/01 08:56:43;;;;;;;;;;;;;;;;;;5059057;28;19935;-88
2022/07/01 08:59:10;;;;;;;;;;;;;;;;;;5105806;27;19927;-88
2022/07/01 09:01:40;;;;;;;;;;;;;;;;;;5110196;27;20014;-88
2022/07/01 09:04:08;;;;;;;;;;;;;;;;;;5108422;27;19927;-87
2022/07/01 09:06:33;;;;;;;;;;;;;;;;;;5078987;28;20306;-88
2022/07/01 09:09:07;;;;;;;;;;;;;;;;;;5091270;28;20443;-88
2022/07/01 09:11:32;;;;;;;;;;;;;;;;;;5077966;28;19932;-88
2022/07/01 09:14:03;;;;;;;;;;;;;;;;;;5071858;28;19954;-88
2022/07/01 09:16:30;;;;;;;;;;;;;;;;;;5104064;27;20424;-88
2022/07/01 09:18:57;;;;;;;;;;;;;;;;;;5072620;28;19924;-88
2022/07/01 09:21:24;;;;;;;;;;;;;;;;;;5109013;27;19931;-88
2022/07/01 09:23:51;;;;;;;;;;;;;;;;;;5076334;28;20283;-88
2022/07/01 09:26:21;;;;;;;;;;;;;;;;;;5091783;28;19926;-88
2022/07/01 09:28:48;;;;;;;;;;;;;;;;;;5071066;28;19928;-88
2022/07/01 09:31:15;;;;;;;;;;;;;;;;;;5079495;28;19939;-88
2022/07/01 09:33:43;;;;;;;;;;;;;;;;;;5057133;28;19967;-88
2022/07/01 09:36:10;;;;;;;;;;;;;;;;;;5079238;28;19936;-88
2022/07/01 09:38:38;;;;;;;;;;;;;;;;;;5109460;27;19989;-88
2022/07/01 09:41:11;;;;;;;;;;;;;;;;;;5074219;28;19933;-87
2022/07/01 09:43:38;;;;;;;;;;;;;;;;;;5078180;28;19924;-88
2022/07/01 09:46:06;;;;;;;;;;;;;;;;;;5077111;28;19928;-88
2022/07/01 09:48:33;;;;;;;;;;;;;;;;;;5071418;28;19931;-88
2022/07/01 09:50:59;;;;;;;;;;;;;;;;;;5085164;28;20301;-88
2022/07/01 09:53:26;;;;;;;;;;;;;;;;;;5080054;28;19928;-87
2022/07/01 09:55:53;;;;;;;;;;;;;;;;;;5073356;28;19946;-88
2022/07/01 09:58:20;;;;;;;;;;;;;;;;;;5074565;28;19924;-88
2022/07/01 10:00:48;;;;;;;;;;;;;;;;;;5075790;28;20480;-88
2022/07/01 10:03:15;;;;;;;;;;;;;;;;;;5094218;28;19920;-88
2022/07/01 10:05:43;;;;;;;;;;;;;;;;;;5103176;27;19929;-88
2022/07/01 10:08:10;;;;;;;;;;;;;;;;;;5080340;28;19985;-88
2022/07/01 10:10:36;;;;;;;;;;;;;;;;;;5061262;28;19935;-89
2022/07/01 10:13:03;;;;;;;;;;;;;;;;;;5067908;28;19928;-88
2022/07/01 10:15:29;;;;;;;;;;;;;;;;;;5073705;28;19931;-87
2022/07/01 10:17:56;;;;;;;;;;;;;;;;;;5066962;28;19935;-86
2022/07/01 10:20:22;;;;;;;;;;;;;;;;;;5070618;28;20014;-87
2022/07/01 10:22:50;;;;;;;;;;;;;;;;;;5079050;28;20002;-88
2022/07/01 10:25:17;;;;;;;;;;;;;;;;;;5071978;28;20330;-87
2022/07/01 10:27:44;;;;;;;;;;;;;;;;;;5067100;28;19924;-87
2022/07/01 10:30:12;;;;;;;;;;;;;;;;;;5074494;28;19972;-88
2022/07/01 10:32:39;;;;;;;;;;;;;;;;;;5075697;28;19946;-86
2022/07/01 10:35:05;;;;;;;;;;;;;;;;;;5078952;28;19928;-88
2022/07/01 10:37:32;;;;;;;;;;;;;;;;;;5084488;28;19923;-87
2022/07/01 10:39:58;;;;;;;;;;;;;;;;;;5070996;28;19963;-87
2022/07/01 10:42:27;;;;;;;;;;;;;;;;;;5075957;28;20445;-87
2022/07/01 10:44:54;;;;;;;;;;;;;;;;;;5073998;28;19958;-87
2022/07/01 10:47:21;;;;;;;;;;;;;;;;;;5079229;28;20018;-87
2022/07/01 10:49:49;;;;;;;;;;;;;;;;;;5073163;28;20266;-86
2022/07/01 10:52:15;;;;;;;;;;;;;;;;;;5075886;28;19932;-87
2022/07/01 10:54:45;;;;;;;;;;;;;;;;;;5067125;28;19930;-87
2022/07/01 10:57:12;;;;;;;;;;;;;;;;;;5081850;28;20015;-86
2022/07/01 10:59:38;;;;;;;;;;;;;;;;;;5074463;28;19924;-86
2022/07/01 11:02:04;;;;;;;;;;;;;;;;;;5077684;28;19923;-86
2022/07/01 11:04:32;;;;;;;;;;;;;;;;;;5075842;28;19967;-86
2022/07/01 11:06:59;;;;;;;;;;;;;;;;;;5073430;28;19928;-86
2022/07/01 11:09:26;;;;;;;;;;;;;;;;;;5078093;28;19928;-87
2022/07/01 11:11:53;;;;;;;;;;;;;;;;;;5070634;28;19935;-87
2022/07/01 11:14:20;;;;;;;;;;;;;;;;;;5076945;28;20007;-86
2022/07/01 11:16:48;;;;;;;;;;;;;;;;;;5076322;28;19928;-86
2022/07/01 11:19:15;;;;;;;;;;;;;;;;;;5071661;28;19928;-86
2022/07/01 11:21:42;;;;;;;;;;;;;;;;;;5074682;28;19997;-87
2022/07/01 11:24:09;;;;;;;;;;;;;;;;;;5107811;27;19920;-87
2022/07/01 11:26:37;;;;;;;;;;;;;;;;;;5071891;28;19932;-87
2022/07/01 11:29:09;;;;;;;;;;;;;;;;;;5108072;27;19927;-89
2022/07/01 11:31:55;;;;;;;;;;;;;;;;;;5073333;28;20079;-87
2022/07/01 11:34:22;;;;;;;;;;;;;;;;;;5078163;28;20001;-87
2022/07/01 11:39:41;;;;;;;;;;;;;;;;;;5077991;28;19936;-86
2022/07/01 11:42:08;;;;;;;;;;;;;;;;;;5110411;27;20322;-86
2022/07/01 11:44:34;;;;;;;;;;;;;;;;;;5061996;28;20260;-87
2022/07/01 11:47:20;;;;;;;;;;;;;;;;;;5079903;28;20027;-87
2022/07/01 11:49:48;;;;;;;;;;;;;;;;;;5060785;28;19934;-87
2022/07/01 11:52:15;;;;;;;;;;;;;;;;;;5095925;28;20393;-87
2022/07/01 11:54:42;;;;;;;;;;;;;;;;;;5093014;28;19927;-86
2022/07/01 11:57:09;;;;;;;;;;;;;;;;;;5092993;28;19924;-89
2022/07/01 11:59:38;;;;;;;;;;;;;;;;;;5075925;28;20011;-86
2022/07/01 12:02:08;;;;;;;;;;;;;;;;;;5072435;28;19921;-85
2022/07/01 12:04:35;;;;;;;;;;;;;;;;;;5072638;28;19921;-86
2022/07/01 12:07:01;;;;;;;;;;;;;;;;;;5067066;28;19924;-84
2022/07/01 12:09:28;;;;;;;;;;;;;;;;;;5069074;28;20011;-86
2022/07/01 12:11:54;;;;;;;;;;;;;;;;;;5060359;28;19973;-86
2022/07/01 12:14:22;;;;;;;;;;;;;;;;;;5062467;28;20308;-86
2022/07/01 12:16:49;;;;;;;;;;;;;;;;;;5098138;27;19932;-86
2022/07/01 12:19:16;;;;;;;;;;;;;;;;;;5067725;28;19963;-86
2022/07/01 12:21:49;;;;;;;;;;;;;;;;;;5067183;28;20436;-87
2022/07/01 12:24:15;;;;;;;;;;;;;;;;;;5103246;27;19937;-86
2022/07/01 12:26:42;;;;;;;;;;;;;;;;;;5065217;28;19928;-86
2022/07/01 12:29:09;;;;;;;;;;;;;;;;;;5068363;28;19963;-86
2022/07/01 12:31:40;;;;;;;;;;;;;;;;;;5067383;28;21105;-86
2022/07/01 12:34:06;;;;;;;;;;;;;;;;;;5063119;28;19976;-86
2022/07/01 12:36:33;;;;;;;;;;;;;;;;;;5066281;28;20059;-86
2022/07/01 12:39:01;;;;;;;;;;;;;;;;;;5060250;28;19935;-86
2022/07/01 12:41:28;;;;;;;;;;;;;;;;;;5066359;28;19981;-86
2022/07/01 12:43:56;;;;;;;;;;;;;;;;;;5065302;28;19928;-86
2022/07/01 12:46:23;;;;;;;;;;;;;;;;;;5063363;28;19928;-86
2022/07/01 12:48:51;;;;;;;;;;;;;;;;;;5064579;28;19924;-85
2022/07/01 12:51:17;;;;;;;;;;;;;;;;;;5067286;28;19923;-86
2022/07/01 12:53:43;;;;;;;;;;;;;;;;;;5062773;28;19982;-86
2022/07/01 12:56:10;;;;;;;;;;;;;;;;;;5065895;28;19924;-86
2022/07/01 12:58:36;;;;;;;;;;;;;;;;;;5063190;28;20371;-85
2022/07/01 13:01:22;;;;;;;;;;;;;;;;;;5062545;28;20362;-85
2022/07/01 13:04:07;;;;;;;;;;;;;;;;;;5068200;28;19942;-86
2022/07/01 13:06:34;;;;;;;;;;;;;;;;;;5070456;28;19920;-85
2022/07/01 13:09:01;;;;;;;;;;;;;;;;;;5067289;28;19935;-86
2022/07/01 13:11:28;;;;;;;;;;;;;;;;;;5070592;28;19928;-86
2022/07/01 13:13:55;;;;;;;;;;;;;;;;;;5066574;28;20374;-86
2022/07/01 13:16:22;;;;;;;;;;;;;;;;;;5046375;28;19928;-86
2022/07/01 13:18:49;;;;;;;;;;;;;;;;;;5096859;27;20302;-85
2022/07/01 13:21:15;;;;;;;;;;;;;;;;;;5081994;28;19928;-85
2022/07/01 13:23:46;;;;;;;;;;;;;;;;;;5059304;28;20530;-85
2022/07/01 13:26:13;;;;;;;;;;;;;;;;;;5082678;28;19921;-85
2022/07/01 13:28:41;;;;;;;;;;;;;;;;;;5094928;27;19924;-85
2022/07/01 13:31:08;;;;;;;;;;;;;;;;;;5045164;28;20321;-85
2022/07/01 13:33:35;;;;;;;;;;;;;;;;;;5058948;28;19958;-86
2022/07/01 13:36:02;;;;;;;;;;;;;;;;;;5058969;28;19924;-86
2022/07/01 13:38:28;;;;;;;;;;;;;;;;;;5064822;28;19924;-89
2022/07/01 13:40:55;;;;;;;;;;;;;;;;;;5052966;28;19924;-89
2022/07/01 13:43:22;;;;;;;;;;;;;;;;;;5072895;28;20065;-89
2022/07/01 13:45:48;;;;;;;;;;;;;;;;;;5081529;28;19928;-89
2022/07/01 13:48:15;;;;;;;;;;;;;;;;;;5071960;28;19931;-89
2022/07/01 13:50:42;;;;;;;;;;;;;;;;;;5068090;28;19932;-89
2022/07/01 13:53:09;;;;;;;;;;;;;;;;;;5071259;28;19928;-89
2022/07/01 13:55:35;;;;;;;;;;;;;;;;;;5070528;28;19935;-88
2022/07/01 13:58:01;;;;;;;;;;;;;;;;;;5066331;28;20294;-89
2022/07/01 14:00:27;;;;;;;;;;;;;;;;;;5084705;28;20424;-88
2022/07/01 14:02:54;;;;;;;;;;;;;;;;;;5065942;28;19963;-89
2022/07/01 14:05:21;;;;;;;;;;;;;;;;;;5071956;28;19989;-88
2022/07/01 14:07:49;;;;;;;;;;;;;;;;;;5067049;28;19927;-88
2022/07/01 14:10:20;;;;;;;;;;;;;;;;;;5065165;28;19931;-85
2022/07/01 14:12:52;;;;;;;;;;;;;;;;;;5063287;28;20453;-86
2022/07/01 14:15:19;;;;;;;;;;;;;;;;;;5098569;27;19999;-85
2022/07/01 14:17:46;;;;;;;;;;;;;;;;;;5065301;28;19936;-86
2022/07/01 14:20:27;;;;;;;;;;;;;;;;;;5046801;28;20017;-85
2022/07/01 14:22:53;;;;;;;;;;;;;;;;;;5044086;28;20007;-85
2022/07/01 14:25:20;;;;;;;;;;;;;;;;;;5046318;28;21813;-85
2022/07/01 14:27:46;;;;;;;;;;;;;;;;;;5025331;28;19939;-86
2022/07/01 14:30:14;;;;;;;;;;;;;;;;;;5025593;28;19954;-85
2022/07/01 14:32:41;;;;;;;;;;;;;;;;;;5058882;28;19924;-85
2022/07/01 14:35:08;;;;;;;;;;;;;;;;;;5045332;28;20271;-85
2022/07/01 14:37:36;;;;;;;;;;;;;;;;;;5045301;28;19925;-85
2022/07/01 14:40:02;;;;;;;;;;;;;;;;;;5059225;28;19928;-85
2022/07/01 14:42:29;;;;;;;;;;;;;;;;;;5045425;28;19936;-85
2022/07/01 14:44:57;;;;;;;;;;;;;;;;;;5040977;28;19939;-85
2022/07/01 14:47:24;;;;;;;;;;;;;;;;;;5053619;28;19924;-85
2022/07/01 14:49:53;;;;;;;;;;;;;;;;;;5039167;28;20402;-86
2022/07/01 14:52:19;;;;;;;;;;;;;;;;;;5050679;28;19932;-86
2022/07/01 14:55:04;;;;;;;;;;;;;;;;;;5061782;28;19942;-85
2022/07/01 14:57:31;;;;;;;;;;;;;;;;;;5096659;27;19928;-86
2022/07/01 14:59:59;;;;;;;;;;;;;;;;;;5061864;28;19935;-85
2022/07/01 15:02:26;;;;;;;;;;;;;;;;;;5070171;28;20645;-86
2022/07/01 15:04:53;;;;;;;;;;;;;;;;;;5092723;27;20015;-86
2022/07/01 15:07:20;;;;;;;;;;;;;;;;;;5067625;28;20063;-86
2022/07/01 15:09:47;;;;;;;;;;;;;;;;;;5057143;28;19928;-87
2022/07/01 15:12:15;;;;;;;;;;;;;;;;;;5063919;28;20294;-87
2022/07/01 15:14:42;;;;;;;;;;;;;;;;;;5053020;28;19992;-86
2022/07/01 15:17:10;;;;;;;;;;;;;;;;;;5070020;28;19931;-86
2022/07/01 15:19:38;;;;;;;;;;;;;;;;;;5066676;28;20010;-86
2022/07/01 15:22:16;;;;;;;;;;;;;;;;;;5062123;28;19920;-86
2022/07/01 15:24:48;;;;;;;;;;;;;;;;;;5057147;28;20479;-88
2022/07/01 15:27:16;;;;;;;;;;;;;;;;;;5065333;28;19928;-86
2022/07/01 15:29:58;;;;;;;;;;;;;;;;;;5018318;28;19925;-86
2022/07/01 15:32:25;;;;;;;;;;;;;;;;;;5027433;28;19933;-86
2022/07/01 15:34:52;;;;;;;;;;;;;;;;;;5018927;28;20448;-86
2022/07/01 15:37:20;;;;;;;;;;;;;;;;;;5007526;28;19940;-86
2022/07/01 15:39:46;;;;;;;;;;;;;;;;;;5008739;28;19939;-86
2022/07/01 15:42:14;;;;;;;;;;;;;;;;;;5036146;28;20079;-86
2022/07/01 15:44:41;;;;;;;;;;;;;;;;;;5000240;28;19928;-86
2022/07/01 15:49:52;;;;;;;;;;;;;;;;;;5035949;28;19967;-86
2022/07/01 15:52:45;;;;;;;;;;;;;;;;;;4985693;28;19984;-86
2022/07/01 15:55:11;;;;;;;;;;;;;;;;;;4962415;28;19932;-86
2022/07/01 15:57:38;;;;;;;;;;;;;;;;;;4962125;28;19929;-86
2022/07/01 16:00:05;;;;;;;;;;;;;;;;;;4999908;28;20397;-86
2022/07/01 16:02:32;;;;;;;;;;;;;;;;;;5021177;28;20006;-86
2022/07/01 16:05:00;;;;;;;;;;;;;;;;;;4994712;28;20003;-87
2022/07/01 16:07:28;;;;;;;;;;;;;;;;;;5018816;28;19947;-86
2022/07/01 16:09:55;;;;;;;;;;;;;;;;;;5014989;28;19925;-86
2022/07/01 16:12:21;;;;;;;;;;;;;;;;;;5000462;28;20073;-86
2022/07/01 16:14:48;;;;;;;;;;;;;;;;;;5021928;28;20334;-86
2022/07/01 16:17:15;;;;;;;;;;;;;;;;;;5004798;28;20440;-86
2022/07/01 16:19:41;;;;;;;;;;;;;;;;;;5001747;28;19935;-86
2022/07/01 16:22:09;;;;;;;;;;;;;;;;;;5003876;28;19936;-86
2022/07/01 16:24:37;;;;;;;;;;;;;;;;;;5055584;28;19928;-86
2022/07/01 16:27:03;;;;;;;;;;;;;;;;;;5092027;27;20050;-86
2022/07/01 16:29:30;;;;;;;;;;;;;;;;;;5098229;27;20230;-87
2022/07/01 16:32:14;;;;;;;;;;;;;;;;;;5043298;28;19975;-86
2022/07/01 16:34:40;;;;;;;;;;;;;;;;;;5021790;28;20011;-86
2022/07/01 16:37:07;;;;;;;;;;;;;;;;;;5044560;28;19935;-86
2022/07/01 16:39:34;;;;;;;;;;;;;;;;;;5023566;28;19994;-87
2022/07/01 16:42:01;;;;;;;;;;;;;;;;;;5021163;28;19928;-86
2022/07/01 16:44:27;;;;;;;;;;;;;;;;;;5039508;28;20066;-86
2022/07/01 16:46:54;;;;;;;;;;;;;;;;;;5038352;28;20349;-86
2022/07/01 16:49:21;;;;;;;;;;;;;;;;;;5011559;28;20383;-86
2022/07/01 16:51:49;;;;;;;;;;;;;;;;;;5032228;28;19938;-86
2022/07/01 16:54:17;;;;;;;;;;;;;;;;;;5037562;28;19924;-86
2022/07/01 16:56:44;;;;;;;;;;;;;;;;;;5030618;28;19947;-88
2022/07/01 16:59:11;;;;;;;;;;;;;;;;;;5020677;28;19924;-86
2022/07/01 17:01:37;;;;;;;;;;;;;;;;;;5035268;28;19928;-86
2022/07/01 17:04:08;;;;;;;;;;;;;;;;;;5067947;28;20035;-86
2022/07/01 17:06:35;;;;;;;;;;;;;;;;;;5071355;28;19920;-86
2022/07/01 17:09:02;;;;;;;;;;;;;;;;;;5062648;28;20080;-85
2022/07/01 17:11:29;;;;;;;;;;;;;;;;;;5065069;28;19928;-85
2022/07/01 17:13:56;;;;;;;;;;;;;;;;;;5061288;28;20381;-85
2022/07/01 17:16:24;;;;;;;;;;;;;;;;;;5059546;28;19920;-85
2022/07/01 17:18:53;;;;;;;;;;;;;;;;;;5075649;27;19974;-85
2022/07/01 17:21:20;;;;;;;;;;;;;;;;;;5056548;28;20350;-84
2022/07/01 17:23:48;;;;;;;;;;;;;;;;;;5065837;28;19924;-85
2022/07/01 17:26:14;;;;;;;;;;;;;;;;;;5056638;28;19928;-85
2022/07/01 17:28:40;;;;;;;;;;;;;;;;;;5054342;28;19924;-85
2022/07/01 17:31:23;;;;;;;;;;;;;;;;;;5039554;28;20030;-85
2022/07/01 17:33:50;;;;;;;;;;;;;;;;;;5019721;28;19935;-85
2022/07/01 17:36:16;;;;;;;;;;;;;;;;;;5022722;28;19928;-85
2022/07/01 17:38:42;;;;;;;;;;;;;;;;;;5021240;28;19928;-85
2022/07/01 17:41:09;;;;;;;;;;;;;;;;;;5010275;28;19960;-85
2022/07/01 17:43:36;;;;;;;;;;;;;;;;;;5023676;28;20395;-85
2022/07/01 17:46:03;;;;;;;;;;;;;;;;;;5006793;28;19933;-85
2022/07/01 17:48:30;;;;;;;;;;;;;;;;;;5026461;28;21713;-85
2022/07/01 17:50:56;;;;;;;;;;;;;;;;;;5037129;28;20370;-85
2022/07/01 17:53:23;;;;;;;;;;;;;;;;;;5025519;28;19929;-85
2022/07/01 17:55:49;;;;;;;;;;;;;;;;;;5023554;28;19962;-85
2022/07/01 17:58:16;;;;;;;;;;;;;;;;;;5009258;28;19928;-86
2022/07/01 18:00:43;;;;;;;;;;;;;;;;;;5023298;28;19928;-85
2022/07/01 18:03:10;;;;;;;;;;;;;;;;;;5057776;28;19920;-85
2022/07/01 18:05:42;;;;;;;;;;;;;;;;;;5064294;28;21773;-85
2022/07/01 18:08:08;;;;;;;;;;;;;;;;;;5083362;27;19924;-85
2022/07/01 18:10:35;;;;;;;;;;;;;;;;;;5058361;28;19952;-87
2022/07/01 18:13:02;;;;;;;;;;;;;;;;;;5058356;28;19928;-88
2022/07/01 18:15:29;;;;;;;;;;;;;;;;;;5092023;27;19928;-87
2022/07/01 18:17:57;;;;;;;;;;;;;;;;;;5055002;28;20293;-87
2022/07/01 18:20:24;;;;;;;;;;;;;;;;;;5098431;27;19931;-87
2022/07/01 18:22:54;;;;;;;;;;;;;;;;;;5058381;28;19924;-87
2022/07/01 18:25:21;;;;;;;;;;;;;;;;;;5066489;28;19927;-87
2022/07/01 18:27:49;;;;;;;;;;;;;;;;;;5073309;28;19928;-88
2022/07/01 18:30:16;;;;;;;;;;;;;;;;;;5096235;27;19928;-87
2022/07/01 18:32:46;;;;;;;;;;;;;;;;;;5042944;28;20022;-88
2022/07/01 18:35:13;;;;;;;;;;;;;;;;;;5059043;28;20298;-88
2022/07/01 18:37:42;;;;;;;;;;;;;;;;;;5064161;28;19924;-88
2022/07/01 18:40:10;;;;;;;;;;;;;;;;;;5087161;28;19928;-88
2022/07/01 18:42:49;;;;;;;;;;;;;;;;;;5069142;28;19973;-88